BAW301 LFPG-EGLL
Flight info
| Callsign | BAW301 |
|---|---|
| Flight time | 0h 44m |
| Altitude | 24000 |
| Route | OPALE6G OPALE DCT KESAX DCT DIMAL DCT ALESO ALESO1H |
| Aircraft | A319/M-SDE3FGIJ1KRWXY/LB1 |
Departure
| Time | 2026-05-05 08:19 |
|---|---|
| Airport | Charles de Gaulle International Airport (LFPG) |
Arrival
| Time | 2026-05-05 09:03 |
|---|---|
| Airport | London Heathrow Airport (EGLL) |
| Time | Latitude | Longitude | Altitude | Speed | Heading |
|---|---|---|---|---|---|
| 2026-05-05 07:49 | 49.00205 | 2.56667 | 358 ft | 0 kts | 3° |
| 2026-05-05 08:05 | 49.00204 | 2.56667 | 361 ft | 2 kts | 3° |
| 2026-05-05 08:05 | 49.00178 | 2.56666 | 354 ft | 4 kts | 1° |
| 2026-05-05 08:05 | 49.00152 | 2.56665 | 357 ft | 4 kts | 354° |
| 2026-05-05 08:06 | 49.00127 | 2.56675 | 363 ft | 4 kts | 320° |
| 2026-05-05 08:06 | 49.00118 | 2.56698 | 361 ft | 1 kts | 265° |
| 2026-05-05 08:09 | 49.00116 | 2.56673 | 356 ft | 5 kts | 265° |
| 2026-05-05 08:09 | 49.00112 | 2.56595 | 354 ft | 10 kts | 265° |
| 2026-05-05 08:09 | 49.00105 | 2.56464 | 354 ft | 15 kts | 265° |
| 2026-05-05 08:09 | 49.00095 | 2.56286 | 354 ft | 15 kts | 265° |
| 2026-05-05 08:10 | 49.00085 | 2.56104 | 356 ft | 19 kts | 265° |
| 2026-05-05 08:10 | 49.00075 | 2.55895 | 354 ft | 13 kts | 265° |
| 2026-05-05 08:10 | 49.00073 | 2.55764 | 354 ft | 14 kts | 272° |
| 2026-05-05 08:10 | 49.00090 | 2.55636 | 359 ft | 9 kts | 317° |
| 2026-05-05 08:11 | 49.00178 | 2.55588 | 357 ft | 19 kts | 343° |
| 2026-05-05 08:11 | 49.00341 | 2.55518 | 359 ft | 28 kts | 344° |
| 2026-05-05 08:11 | 49.00534 | 2.55435 | 357 ft | 28 kts | 344° |
| 2026-05-05 08:11 | 49.00712 | 2.55356 | 358 ft | 24 kts | 343° |
| 2026-05-05 08:12 | 49.00893 | 2.55277 | 358 ft | 29 kts | 344° |
| 2026-05-05 08:12 | 49.01072 | 2.55199 | 360 ft | 29 kts | 344° |
| 2026-05-05 08:12 | 49.01245 | 2.55185 | 357 ft | 26 kts | 21° |
| 2026-05-05 08:12 | 49.01405 | 2.55198 | 360 ft | 24 kts | 346° |
| 2026-05-05 08:13 | 49.01588 | 2.55158 | 355 ft | 30 kts | 357° |
| 2026-05-05 08:13 | 49.01754 | 2.55138 | 358 ft | 22 kts | 355° |
| 2026-05-05 08:13 | 49.01888 | 2.55110 | 356 ft | 18 kts | 346° |
| 2026-05-05 08:13 | 49.01997 | 2.55070 | 357 ft | 11 kts | 344° |
| 2026-05-05 08:14 | 49.02035 | 2.54978 | 358 ft | 12 kts | 277° |
| 2026-05-05 08:14 | 49.02026 | 2.54829 | 360 ft | 16 kts | 265° |
| 2026-05-05 08:14 | 49.02017 | 2.54634 | 360 ft | 20 kts | 265° |
| 2026-05-05 08:14 | 49.02005 | 2.54404 | 355 ft | 23 kts | 265° |
| 2026-05-05 08:15 | 49.01991 | 2.54230 | 355 ft | 15 kts | 259° |
| 2026-05-05 08:15 | 49.01920 | 2.54113 | 358 ft | 16 kts | 211° |
| 2026-05-05 08:15 | 49.01890 | 2.53948 | 357 ft | 18 kts | 265° |
| 2026-05-05 08:15 | 49.01879 | 2.53750 | 354 ft | 19 kts | 265° |
| 2026-05-05 08:16 | 49.01871 | 2.53584 | 354 ft | 16 kts | 266° |
| 2026-05-05 08:16 | 49.01864 | 2.53408 | 354 ft | 18 kts | 266° |
| 2026-05-05 08:16 | 49.01849 | 2.53213 | 355 ft | 19 kts | 264° |
| 2026-05-05 08:16 | 49.01856 | 2.53064 | 356 ft | 11 kts | 307° |
| 2026-05-05 08:17 | 49.01938 | 2.53035 | 358 ft | 14 kts | 355° |
| 2026-05-05 08:17 | 49.02030 | 2.53024 | 355 ft | 5 kts | 355° |
| 2026-05-05 08:17 | 49.02078 | 2.53018 | 356 ft | 10 kts | 355° |
| 2026-05-05 08:17 | 49.02145 | 2.53053 | 360 ft | 13 kts | 53° |
| 2026-05-05 08:18 | 49.02161 | 2.53157 | 355 ft | 7 kts | 86° |
| 2026-05-05 08:18 | 49.02162 | 2.53174 | 363 ft | 5 kts | 85° |
| 2026-05-05 08:18 | 49.02178 | 2.53465 | 356 ft | 57 kts | 85° |
| 2026-05-05 08:18 | 49.02229 | 2.54384 | 356 ft | 115 kts | 85° |
| 2026-05-05 08:19 | 49.02315 | 2.55844 | 503 ft | 149 kts | 81° |
| 2026-05-05 08:19 | 49.02409 | 2.57406 | 1178 ft | 148 kts | 83° |
| 2026-05-05 08:19 | 49.02484 | 2.59005 | 1817 ft | 158 kts | 83° |
| 2026-05-05 08:19 | 49.02573 | 2.60797 | 2291 ft | 182 kts | 83° |
| 2026-05-05 08:20 | 49.02679 | 2.62781 | 2999 ft | 192 kts | 84° |
| 2026-05-05 08:20 | 49.02793 | 2.64937 | 3546 ft | 218 kts | 85° |
| 2026-05-05 08:20 | 49.02920 | 2.67369 | 4105 ft | 242 kts | 84° |
| 2026-05-05 08:20 | 49.03058 | 2.69994 | 4940 ft | 253 kts | 85° |
| 2026-05-05 08:21 | 49.03247 | 2.72679 | 5891 ft | 258 kts | 77° |
| 2026-05-05 08:21 | 49.04157 | 2.75044 | 6742 ft | 267 kts | 43° |
| 2026-05-05 08:21 | 49.05859 | 2.76219 | 7653 ft | 276 kts | 8° |
| 2026-05-05 08:21 | 49.07770 | 2.75764 | 8650 ft | 286 kts | 340° |
| 2026-05-05 08:22 | 49.09536 | 2.74312 | 9718 ft | 291 kts | 329° |
| 2026-05-05 08:22 | 49.11228 | 2.72585 | 10400 ft | 307 kts | 327° |
| 2026-05-05 08:22 | 49.13079 | 2.70730 | 10707 ft | 329 kts | 330° |
| 2026-05-05 08:22 | 49.15087 | 2.68901 | 11223 ft | 340 kts | 332° |
| 2026-05-05 08:23 | 49.17189 | 2.67177 | 11892 ft | 345 kts | 335° |
| 2026-05-05 08:23 | 49.19355 | 2.65545 | 12597 ft | 349 kts | 336° |
| 2026-05-05 08:23 | 49.21564 | 2.63968 | 13317 ft | 353 kts | 336° |
| 2026-05-05 08:23 | 49.23708 | 2.62066 | 13965 ft | 359 kts | 327° |
| 2026-05-05 08:24 | 49.25775 | 2.59867 | 14567 ft | 364 kts | 327° |
| 2026-05-05 08:24 | 49.27854 | 2.57614 | 15183 ft | 368 kts | 326° |
| 2026-05-05 08:24 | 49.29947 | 2.55322 | 15794 ft | 372 kts | 326° |
| 2026-05-05 08:24 | 49.32065 | 2.52989 | 16363 ft | 377 kts | 325° |
| 2026-05-05 08:25 | 49.34202 | 2.50627 | 17015 ft | 380 kts | 325° |
| 2026-05-05 08:25 | 49.36366 | 2.48236 | 17611 ft | 385 kts | 325° |
| 2026-05-05 08:25 | 49.38547 | 2.45832 | 18251 ft | 387 kts | 325° |
| 2026-05-05 08:25 | 49.40749 | 2.43411 | 18756 ft | 392 kts | 325° |
| 2026-05-05 08:26 | 49.42981 | 2.40960 | 19283 ft | 396 kts | 325° |
| 2026-05-05 08:26 | 49.45226 | 2.38482 | 19818 ft | 400 kts | 325° |
| 2026-05-05 08:26 | 49.47494 | 2.35976 | 20364 ft | 403 kts | 325° |
| 2026-05-05 08:26 | 49.49777 | 2.33454 | 20921 ft | 406 kts | 325° |
| 2026-05-05 08:27 | 49.52076 | 2.30911 | 21469 ft | 408 kts | 325° |
| 2026-05-05 08:27 | 49.54393 | 2.28345 | 22017 ft | 411 kts | 325° |
| 2026-05-05 08:27 | 49.56730 | 2.25759 | 22535 ft | 414 kts | 325° |
| 2026-05-05 08:27 | 49.59078 | 2.23156 | 23029 ft | 418 kts | 325° |
| 2026-05-05 08:28 | 49.61450 | 2.20524 | 23496 ft | 422 kts | 325° |
| 2026-05-05 08:28 | 49.63842 | 2.17856 | 23807 ft | 425 kts | 324° |
| 2026-05-05 08:28 | 49.66229 | 2.15189 | 23882 ft | 420 kts | 324° |
| 2026-05-05 08:28 | 49.68585 | 2.12554 | 23902 ft | 416 kts | 324° |
| 2026-05-05 08:29 | 49.70922 | 2.09941 | 23901 ft | 415 kts | 324° |
| 2026-05-05 08:29 | 49.73230 | 2.07360 | 23895 ft | 414 kts | 324° |
| 2026-05-05 08:29 | 49.75563 | 2.04747 | 23904 ft | 413 kts | 324° |
| 2026-05-05 08:30 | 49.80213 | 1.99523 | 23906 ft | 413 kts | 324° |
| 2026-05-05 08:30 | 49.82538 | 1.96903 | 23915 ft | 413 kts | 324° |
| 2026-05-05 08:30 | 49.84861 | 1.94285 | 23914 ft | 413 kts | 324° |
| 2026-05-05 08:30 | 49.87187 | 1.91658 | 23920 ft | 413 kts | 324° |
| 2026-05-05 08:31 | 49.89511 | 1.89033 | 23917 ft | 413 kts | 324° |
| 2026-05-05 08:31 | 49.91816 | 1.86372 | 23920 ft | 413 kts | 323° |
| 2026-05-05 08:31 | 49.94086 | 1.83630 | 23919 ft | 413 kts | 322° |
| 2026-05-05 08:31 | 49.96332 | 1.80840 | 23927 ft | 413 kts | 321° |
| 2026-05-05 08:32 | 49.98563 | 1.78036 | 23927 ft | 413 kts | 321° |
| 2026-05-05 08:32 | 50.00800 | 1.75218 | 23925 ft | 413 kts | 321° |
| 2026-05-05 08:32 | 50.03033 | 1.72413 | 23926 ft | 413 kts | 321° |
| 2026-05-05 08:32 | 50.05279 | 1.69613 | 23929 ft | 412 kts | 322° |
| 2026-05-05 08:33 | 50.07610 | 1.67115 | 23929 ft | 412 kts | 331° |
| 2026-05-05 08:33 | 50.10180 | 1.65161 | 23928 ft | 411 kts | 336° |
| 2026-05-05 08:33 | 50.12775 | 1.63305 | 23924 ft | 411 kts | 336° |
| 2026-05-05 08:33 | 50.15374 | 1.61431 | 23926 ft | 411 kts | 336° |
| 2026-05-05 08:34 | 50.17962 | 1.59553 | 23926 ft | 411 kts | 336° |
| 2026-05-05 08:34 | 50.20551 | 1.57667 | 23923 ft | 411 kts | 335° |
| 2026-05-05 08:34 | 50.23142 | 1.55776 | 23929 ft | 411 kts | 335° |
| 2026-05-05 08:34 | 50.25735 | 1.53881 | 23930 ft | 411 kts | 335° |
| 2026-05-05 08:35 | 50.28322 | 1.51987 | 23936 ft | 411 kts | 335° |
| 2026-05-05 08:35 | 50.30910 | 1.50091 | 23943 ft | 410 kts | 335° |
| 2026-05-05 08:35 | 50.33497 | 1.48197 | 23942 ft | 411 kts | 335° |
| 2026-05-05 08:35 | 50.36084 | 1.46304 | 23944 ft | 411 kts | 335° |
| 2026-05-05 08:36 | 50.38676 | 1.44406 | 23944 ft | 411 kts | 335° |
| 2026-05-05 08:36 | 50.41268 | 1.42508 | 23944 ft | 410 kts | 335° |
| 2026-05-05 08:36 | 50.43854 | 1.40612 | 23946 ft | 410 kts | 335° |
| 2026-05-05 08:36 | 50.46438 | 1.38710 | 23949 ft | 410 kts | 333° |
| 2026-05-05 08:37 | 50.48901 | 1.36446 | 23935 ft | 410 kts | 323° |
| 2026-05-05 08:37 | 50.51077 | 1.33563 | 23939 ft | 409 kts | 313° |
| 2026-05-05 08:37 | 50.53006 | 1.30297 | 23933 ft | 409 kts | 310° |
| 2026-05-05 08:37 | 50.54933 | 1.26996 | 23940 ft | 408 kts | 311° |
| 2026-05-05 08:38 | 50.56862 | 1.23709 | 23946 ft | 408 kts | 311° |
| 2026-05-05 08:38 | 50.58804 | 1.20453 | 23940 ft | 409 kts | 312° |
| 2026-05-05 08:38 | 50.60769 | 1.17301 | 23946 ft | 409 kts | 314° |
| 2026-05-05 08:38 | 50.62789 | 1.14148 | 23947 ft | 409 kts | 314° |
| 2026-05-05 08:39 | 50.64819 | 1.11003 | 23944 ft | 409 kts | 314° |
| 2026-05-05 08:39 | 50.66846 | 1.07858 | 23722 ft | 408 kts | 314° |
| 2026-05-05 08:39 | 50.68865 | 1.04700 | 23483 ft | 408 kts | 314° |
| 2026-05-05 08:39 | 50.70872 | 1.01538 | 23205 ft | 408 kts | 313° |
| 2026-05-05 08:40 | 50.72873 | 0.98366 | 22934 ft | 407 kts | 313° |
| 2026-05-05 08:40 | 50.74193 | 0.96264 | 22758 ft | 405 kts | 314° |
| 2026-05-05 08:40 | 50.76161 | 0.93123 | 22484 ft | 401 kts | 314° |
| 2026-05-05 08:40 | 50.78120 | 0.89994 | 22215 ft | 400 kts | 313° |
| 2026-05-05 08:41 | 50.80072 | 0.86873 | 21951 ft | 398 kts | 314° |
| 2026-05-05 08:41 | 50.82012 | 0.83769 | 21688 ft | 395 kts | 314° |
| 2026-05-05 08:41 | 50.83931 | 0.80693 | 21351 ft | 389 kts | 314° |
| 2026-05-05 08:41 | 50.85821 | 0.77659 | 20888 ft | 386 kts | 314° |
| 2026-05-05 08:42 | 50.87700 | 0.74647 | 20417 ft | 382 kts | 313° |
| 2026-05-05 08:42 | 50.89559 | 0.71666 | 19968 ft | 378 kts | 314° |
| 2026-05-05 08:42 | 50.91398 | 0.68714 | 19498 ft | 375 kts | 314° |
| 2026-05-05 08:42 | 50.93224 | 0.65774 | 19021 ft | 373 kts | 314° |
| 2026-05-05 08:43 | 50.95039 | 0.62848 | 18544 ft | 370 kts | 314° |
| 2026-05-05 08:43 | 50.96839 | 0.59943 | 18028 ft | 368 kts | 314° |
| 2026-05-05 08:43 | 50.98635 | 0.57039 | 17346 ft | 370 kts | 314° |
| 2026-05-05 08:43 | 51.00441 | 0.54117 | 16666 ft | 371 kts | 314° |
| 2026-05-05 08:44 | 51.02245 | 0.51193 | 15990 ft | 371 kts | 315° |
| 2026-05-05 08:44 | 51.04055 | 0.48258 | 15314 ft | 371 kts | 315° |
| 2026-05-05 08:44 | 51.05856 | 0.45335 | 14694 ft | 369 kts | 315° |
| 2026-05-05 08:44 | 51.07622 | 0.42487 | 14069 ft | 367 kts | 315° |
| 2026-05-05 08:45 | 51.09439 | 0.39666 | 13541 ft | 361 kts | 317° |
| 2026-05-05 08:45 | 51.11241 | 0.36929 | 12921 ft | 356 kts | 317° |
| 2026-05-05 08:45 | 51.13033 | 0.34235 | 12289 ft | 353 kts | 317° |
| 2026-05-05 08:45 | 51.14792 | 0.31586 | 12029 ft | 340 kts | 317° |
| 2026-05-05 08:46 | 51.16468 | 0.29046 | 11901 ft | 325 kts | 317° |
| 2026-05-05 08:46 | 51.18064 | 0.26615 | 11768 ft | 311 kts | 317° |
| 2026-05-05 08:46 | 51.19602 | 0.24263 | 11587 ft | 302 kts | 316° |
| 2026-05-05 08:46 | 51.21104 | 0.21960 | 11253 ft | 298 kts | 317° |
| 2026-05-05 08:47 | 51.22592 | 0.19678 | 10869 ft | 294 kts | 316° |
| 2026-05-05 08:47 | 51.24061 | 0.17421 | 10263 ft | 292 kts | 316° |
| 2026-05-05 08:47 | 51.25515 | 0.15181 | 9664 ft | 290 kts | 316° |
| 2026-05-05 08:47 | 51.26960 | 0.12954 | 9029 ft | 287 kts | 316° |
| 2026-05-05 08:48 | 51.28388 | 0.10749 | 8427 ft | 283 kts | 317° |
| 2026-05-05 08:48 | 51.29790 | 0.08582 | 8013 ft | 274 kts | 316° |
| 2026-05-05 08:48 | 51.31111 | 0.06539 | 7867 ft | 256 kts | 316° |
| 2026-05-05 08:48 | 51.32305 | 0.04505 | 7526 ft | 248 kts | 306° |
| 2026-05-05 08:49 | 51.33068 | 0.02052 | 7086 ft | 246 kts | 287° |
| 2026-05-05 08:49 | 51.33322 | -0.00622 | 6990 ft | 243 kts | 276° |
| 2026-05-05 08:49 | 51.33475 | -0.03321 | 6982 ft | 244 kts | 277° |
| 2026-05-05 08:49 | 51.33643 | -0.06026 | 6988 ft | 244 kts | 277° |
| 2026-05-05 08:50 | 51.33815 | -0.08734 | 6990 ft | 245 kts | 277° |
| 2026-05-05 08:50 | 51.33983 | -0.11442 | 6993 ft | 245 kts | 276° |
| 2026-05-05 08:50 | 51.34148 | -0.14147 | 6991 ft | 245 kts | 276° |
| 2026-05-05 08:50 | 51.34311 | -0.16845 | 6994 ft | 245 kts | 277° |
| 2026-05-05 08:51 | 51.34474 | -0.19551 | 6997 ft | 245 kts | 276° |
| 2026-05-05 08:51 | 51.34635 | -0.22241 | 6996 ft | 245 kts | 276° |
| 2026-05-05 08:51 | 51.34795 | -0.24935 | 6997 ft | 245 kts | 277° |
| 2026-05-05 08:51 | 51.34957 | -0.27653 | 6997 ft | 245 kts | 277° |
| 2026-05-05 08:52 | 51.35116 | -0.30361 | 6997 ft | 245 kts | 277° |
| 2026-05-05 08:52 | 51.35275 | -0.33082 | 6999 ft | 245 kts | 277° |
| 2026-05-05 08:52 | 51.35432 | -0.35797 | 6997 ft | 245 kts | 277° |
| 2026-05-05 08:52 | 51.35590 | -0.38512 | 7000 ft | 245 kts | 277° |
| 2026-05-05 08:53 | 51.35747 | -0.41227 | 7003 ft | 245 kts | 276° |
| 2026-05-05 08:53 | 51.35905 | -0.43943 | 7002 ft | 245 kts | 276° |
| 2026-05-05 08:53 | 51.36060 | -0.46657 | 7000 ft | 245 kts | 277° |
| 2026-05-05 08:53 | 51.36215 | -0.49375 | 7003 ft | 245 kts | 277° |
| 2026-05-05 08:54 | 51.36368 | -0.52087 | 6996 ft | 245 kts | 276° |
| 2026-05-05 08:54 | 51.36514 | -0.54719 | 6999 ft | 245 kts | 276° |
| 2026-05-05 08:54 | 51.36663 | -0.57428 | 6999 ft | 245 kts | 277° |
| 2026-05-05 08:54 | 51.36812 | -0.60143 | 7000 ft | 245 kts | 276° |
| 2026-05-05 08:55 | 51.36961 | -0.62833 | 6996 ft | 237 kts | 276° |
| 2026-05-05 08:55 | 51.37098 | -0.65362 | 6994 ft | 226 kts | 275° |
| 2026-05-05 08:55 | 51.37149 | -0.67610 | 6774 ft | 228 kts | 271° |
| 2026-05-05 08:55 | 51.37134 | -0.70167 | 6427 ft | 231 kts | 270° |
| 2026-05-05 08:56 | 51.37096 | -0.72743 | 6070 ft | 232 kts | 270° |
| 2026-05-05 08:56 | 51.37277 | -0.75281 | 5725 ft | 229 kts | 293° |
| 2026-05-05 08:56 | 51.38132 | -0.77356 | 5382 ft | 221 kts | 321° |
| 2026-05-05 08:56 | 51.39415 | -0.78517 | 5059 ft | 213 kts | 348° |
| 2026-05-05 08:57 | 51.40862 | -0.78764 | 4748 ft | 208 kts | 1° |
| 2026-05-05 08:57 | 51.42302 | -0.78835 | 4425 ft | 206 kts | 0° |
| 2026-05-05 08:57 | 51.43725 | -0.78912 | 4124 ft | 203 kts | 0° |
| 2026-05-05 08:57 | 51.45130 | -0.78988 | 3842 ft | 200 kts | 0° |
| 2026-05-05 08:58 | 51.46488 | -0.78830 | 3641 ft | 190 kts | 24° |
| 2026-05-05 08:58 | 51.47415 | -0.77496 | 3585 ft | 181 kts | 62° |
| 2026-05-05 08:58 | 51.47606 | -0.75518 | 3445 ft | 183 kts | 89° |
| 2026-05-05 08:58 | 51.47611 | -0.73497 | 3251 ft | 177 kts | 86° |
| 2026-05-05 08:59 | 51.47627 | -0.71545 | 2977 ft | 173 kts | 86° |
| 2026-05-05 08:59 | 51.47641 | -0.69637 | 2740 ft | 170 kts | 85° |
| 2026-05-05 08:59 | 51.47652 | -0.67758 | 2513 ft | 168 kts | 85° |
| 2026-05-05 08:59 | 51.47663 | -0.65892 | 2283 ft | 167 kts | 85° |
| 2026-05-05 09:00 | 51.47674 | -0.64028 | 2049 ft | 166 kts | 86° |
| 2026-05-05 09:00 | 51.47683 | -0.62226 | 1828 ft | 157 kts | 85° |
| 2026-05-05 09:00 | 51.47691 | -0.60525 | 1614 ft | 147 kts | 85° |
| 2026-05-05 09:00 | 51.47699 | -0.58964 | 1420 ft | 139 kts | 86° |
| 2026-05-05 09:01 | 51.47707 | -0.57439 | 1242 ft | 136 kts | 85° |
| 2026-05-05 09:01 | 51.47715 | -0.55945 | 1059 ft | 137 kts | 86° |
| 2026-05-05 09:01 | 51.47722 | -0.54449 | 858 ft | 136 kts | 84° |
| 2026-05-05 09:01 | 51.47730 | -0.52921 | 676 ft | 137 kts | 86° |
| 2026-05-05 09:02 | 51.47741 | -0.51395 | 443 ft | 138 kts | 87° |
| 2026-05-05 09:02 | 51.47750 | -0.49878 | 286 ft | 137 kts | 86° |
| 2026-05-05 09:02 | 51.47751 | -0.48356 | 122 ft | 136 kts | 86° |
| 2026-05-05 09:02 | 51.47759 | -0.46966 | 88 ft | 113 kts | 90° |
| 2026-05-05 09:03 | 51.47762 | -0.45984 | 85 ft | 64 kts | 90° |
| 2026-05-05 09:03 | 51.47759 | -0.45547 | 85 ft | 14 kts | 98° |
| 2026-05-05 09:03 | 51.47692 | -0.45469 | 87 ft | 15 kts | 176° |
| 2026-05-05 09:03 | 51.47598 | -0.45514 | 87 ft | 16 kts | 251° |
| 2026-05-05 09:04 | 51.47596 | -0.45705 | 86 ft | 19 kts | 270° |
| 2026-05-05 09:04 | 51.47595 | -0.45932 | 87 ft | 22 kts | 270° |
| 2026-05-05 09:04 | 51.47595 | -0.46194 | 86 ft | 25 kts | 269° |
| 2026-05-05 09:04 | 51.47593 | -0.46490 | 86 ft | 28 kts | 270° |
| 2026-05-05 09:05 | 51.47592 | -0.46765 | 86 ft | 26 kts | 269° |
| 2026-05-05 09:05 | 51.47583 | -0.47067 | 89 ft | 29 kts | 269° |
| 2026-05-05 09:05 | 51.47582 | -0.47366 | 87 ft | 25 kts | 270° |
| 2026-05-05 09:05 | 51.47581 | -0.47657 | 88 ft | 23 kts | 270° |
| 2026-05-05 09:06 | 51.47580 | -0.47916 | 86 ft | 23 kts | 270° |
| 2026-05-05 09:06 | 51.47579 | -0.48152 | 86 ft | 21 kts | 270° |
| 2026-05-05 09:06 | 51.47577 | -0.48350 | 88 ft | 14 kts | 268° |
| 2026-05-05 09:06 | 51.47563 | -0.48464 | 88 ft | 11 kts | 224° |
| 2026-05-05 09:07 | 51.47477 | -0.48475 | 86 ft | 14 kts | 179° |
| 2026-05-05 09:07 | 51.47366 | -0.48474 | 86 ft | 17 kts | 180° |
| 2026-05-05 09:07 | 51.47237 | -0.48473 | 86 ft | 20 kts | 179° |
| 2026-05-05 09:07 | 51.47090 | -0.48472 | 87 ft | 22 kts | 180° |
| 2026-05-05 09:08 | 51.46930 | -0.48470 | 86 ft | 18 kts | 180° |
| 2026-05-05 09:08 | 51.46877 | -0.48530 | 86 ft | 10 kts | 265° |
| 2026-05-05 09:08 | 51.46877 | -0.48643 | 86 ft | 7 kts | 270° |
| 2026-05-05 09:08 | 51.46864 | -0.48681 | 87 ft | 5 kts | 199° |
| 2026-05-05 09:09 | 51.46834 | -0.48680 | 86 ft | 2 kts | 178° |
| 2026-05-05 09:09 | 51.46826 | -0.48680 | 86 ft | 1 kts | 179° |